Time;durP1;ratioP1;P1;durP2;ratioP2;P2;SDS_P1;SDS_P2;PMS_P1;PMS_P2;Temp;Humidity;BMP_temperature;BMP_pressure;BME280_temperature;BME280_humidity;BME280_pressure;Samples;Min_cycle;Max_cycle;Signal;HPM_P1;HPM_P2
2024/01/07 00:00:17;;;;;;;7.70;2.50;;;;;;;17.89;57.99;99822.50;4937731;28;20694;-68
2024/01/07 00:02:42;;;;;;;5.43;2.20;;;;;;;17.86;58.03;99833.88;4925563;28;20229;-69
2024/01/07 00:05:07;;;;;;;4.23;2.00;;;;;;;17.87;58.27;99819.22;4943975;28;20241;-73
2024/01/07 00:07:33;;;;;;;4.83;2.40;;;;;;;17.86;58.25;99825.31;4979719;28;20351;-73
2024/01/07 00:09:58;;;;;;;6.70;3.07;;;;;;;17.83;58.37;99826.91;4949059;28;20717;-73
2024/01/07 00:12:25;;;;;;;5.50;2.73;;;;;;;17.84;58.08;99822.84;4948578;28;20220;-73
2024/01/07 00:14:50;;;;;;;5.00;2.40;;;;;;;17.85;58.07;99833.06;4941224;28;20209;-73
2024/01/07 00:17:16;;;;;;;4.40;2.30;;;;;;;17.84;58.15;99830.56;4944676;28;20481;-73
2024/01/07 00:19:41;;;;;;;5.40;2.50;;;;;;;17.83;58.31;99826.91;4944060;28;20213;-73
2024/01/07 00:22:07;;;;;;;4.83;2.63;;;;;;;17.88;57.99;99832.28;4929683;28;20939;-73
2024/01/07 00:24:32;;;;;;;6.73;2.30;;;;;;;17.84;58.10;99836.28;4944735;28;20694;-73
2024/01/07 00:26:58;;;;;;;5.67;2.40;;;;;;;17.84;58.00;99828.56;4947700;28;20665;-73
2024/01/07 00:29:23;;;;;;;3.90;2.50;;;;;;;17.82;58.07;99833.84;4932197;29;20213;-73
2024/01/07 00:31:49;;;;;;;7.33;2.23;;;;;;;17.84;58.03;99825.69;4931935;28;20194;-72
2024/01/07 00:34:14;;;;;;;4.67;2.27;;;;;;;17.85;57.98;99827.34;4926961;28;20269;-73
2024/01/07 00:36:40;;;;;;;4.50;2.37;;;;;;;17.82;58.23;99833.00;4941554;28;20213;-73
2024/01/07 00:39:05;;;;;;;4.47;2.53;;;;;;;17.80;58.34;99833.38;4925187;28;20277;-72
2024/01/07 00:41:31;;;;;;;5.00;2.03;;;;;;;17.83;58.04;99838.34;4942648;28;20233;-73
2024/01/07 00:43:56;;;;;;;4.10;2.47;;;;;;;17.82;58.45;99828.13;4938740;28;20198;-72
2024/01/07 00:46:22;;;;;;;4.90;2.20;;;;;;;17.81;57.84;99826.47;4976291;28;20198;-73
2024/01/07 00:48:47;;;;;;;5.00;2.37;;;;;;;17.84;58.08;99831.41;4940047;28;20230;-73
2024/01/07 00:51:13;;;;;;;4.93;2.30;;;;;;;17.81;58.41;99832.19;4940084;29;20198;-73
2024/01/07 00:53:38;;;;;;;4.17;2.20;;;;;;;17.81;58.40;99837.88;4950192;28;20198;-73
2024/01/07 00:56:04;;;;;;;4.37;2.50;;;;;;;17.81;58.36;99843.59;4971530;28;20211;-72
2024/01/07 00:58:30;;;;;;;6.73;2.47;;;;;;;17.84;58.18;99836.28;4959118;28;20651;-72
2024/01/07 01:00:55;;;;;;;3.40;2.00;;;;;;;17.81;58.30;99837.09;4941893;28;20445;-73
2024/01/07 01:03:21;;;;;;;5.00;1.90;;;;;;;17.83;58.16;99828.94;4942158;28;20213;-72
2024/01/07 01:05:46;;;;;;;3.50;1.93;;;;;;;17.80;58.39;99841.97;4930517;29;20199;-73
2024/01/07 01:08:12;;;;;;;6.77;2.63;;;;;;;17.83;58.22;99838.34;4976128;28;20234;-73
2024/01/07 01:10:37;;;;;;;6.27;2.50;;;;;;;17.80;58.23;99844.81;4955243;28;20565;-73
2024/01/07 01:13:03;;;;;;;4.37;2.30;;;;;;;17.82;58.12;99842.41;4976602;28;20711;-73
2024/01/07 01:15:28;;;;;;;3.87;2.37;;;;;;;17.83;58.04;99844.06;4947056;28;20261;-73
2024/01/07 01:17:54;;;;;;;5.10;2.60;;;;;;;17.81;58.11;99846.44;4964645;28;20194;-72
2024/01/07 01:20:19;;;;;;;4.60;2.50;;;;;;;17.80;57.98;99850.53;4946487;28;20202;-72
2024/01/07 01:22:45;;;;;;;5.77;3.20;;;;;;;17.84;58.40;99848.53;4942447;28;20218;-73
2024/01/07 01:25:10;;;;;;;3.53;2.20;;;;;;;17.81;58.35;99857.06;4940137;28;20203;-74
2024/01/07 01:27:36;;;;;;;4.10;1.90;;;;;;;17.80;58.46;99855.44;4969102;28;20241;-75
2024/01/07 01:30:02;;;;;;;6.57;2.30;;;;;;;17.80;58.32;99853.38;4924815;28;20245;-75
2024/01/07 01:32:27;;;;;;;3.50;2.00;;;;;;;17.79;58.01;99854.59;4923959;29;20998;-75
2024/01/07 01:34:53;;;;;;;3.90;2.37;;;;;;;17.80;58.31;99855.44;4917529;29;20198;-75
2024/01/07 01:37:18;;;;;;;3.90;1.80;;;;;;;17.79;57.98;99857.44;4964420;28;20209;-75
2024/01/07 01:39:43;;;;;;;4.10;2.20;;;;;;;17.79;58.26;99863.16;4920941;28;20206;-75
2024/01/07 01:42:09;;;;;;;3.53;1.97;;;;;;;17.78;58.42;99866.41;4920740;28;20233;-75
2024/01/07 01:44:34;;;;;;;3.37;1.63;;;;;;;17.77;58.60;99859.88;4953054;28;20654;-75
2024/01/07 01:47:00;;;;;;;4.03;2.03;;;;;;;17.81;58.33;99860.72;4937641;28;20213;-75
2024/01/07 01:49:26;;;;;;;4.00;1.83;;;;;;;17.79;58.15;99857.44;4949652;28;20234;-76
2024/01/07 01:51:52;;;;;;;4.73;2.03;;;;;;;17.78;58.36;99858.66;4933153;29;20687;-75
2024/01/07 01:54:18;;;;;;;5.13;2.23;;;;;;;17.82;57.92;99859.53;4916205;29;20216;-75
2024/01/07 01:56:45;;;;;;;4.50;2.30;;;;;;;17.83;57.99;99863.19;4930551;29;20606;-75
2024/01/07 01:59:11;;;;;;;4.90;1.97;;;;;;;17.78;58.26;99864.38;4949729;28;21009;-75
2024/01/07 02:01:37;;;;;;;5.63;2.07;;;;;;;17.78;57.91;99863.53;4921439;28;20214;-75
2024/01/07 02:04:02;;;;;;;4.33;2.37;;;;;;;17.81;57.84;99875.00;4950953;28;20470;-76
2024/01/07 02:06:27;;;;;;;3.47;2.37;;;;;;;17.78;58.05;99870.09;4947623;29;20294;-75
2024/01/07 02:08:53;;;;;;;6.73;2.17;;;;;;;17.81;58.13;99872.16;4933134;29;20215;-75
2024/01/07 02:11:19;;;;;;;5.17;2.37;;;;;;;17.78;58.56;99880.66;4930708;29;20296;-76
2024/01/07 02:13:45;;;;;;;4.83;1.90;;;;;;;17.81;58.02;99877.84;4931745;28;20684;-75
2024/01/07 02:16:10;;;;;;;5.40;2.07;;;;;;;17.80;57.98;99881.13;4882963;29;20483;-75
2024/01/07 02:18:35;;;;;;;3.43;2.27;;;;;;;17.79;57.84;99880.28;4884000;29;20777;-75
2024/01/07 02:21:01;;;;;;;3.50;1.90;;;;;;;17.80;58.14;99881.13;4933570;28;20198;-75
2024/01/07 02:23:26;;;;;;;2.97;1.83;;;;;;;17.77;58.29;99894.16;4931379;28;20249;-75
2024/01/07 02:25:52;;;;;;;5.60;2.30;;;;;;;17.76;58.28;99886.75;4923200;29;20290;-75
2024/01/07 02:28:17;;;;;;;3.80;1.77;;;;;;;17.80;58.15;99878.28;4931065;28;20212;-75
2024/01/07 02:30:43;;;;;;;3.60;1.60;;;;;;;17.82;57.96;99884.41;4913370;29;20267;-74
2024/01/07 02:33:08;;;;;;;4.47;2.10;;;;;;;17.80;58.03;99876.22;4913379;28;20294;-73
2024/01/07 02:35:33;;;;;;;3.30;1.80;;;;;;;17.79;58.36;99876.59;4934922;29;20207;-73
2024/01/07 02:37:59;;;;;;;5.23;2.00;;;;;;;17.79;58.19;99871.72;4936184;29;20199;-72
2024/01/07 02:40:24;;;;;;;4.60;1.80;;;;;;;17.76;57.77;99881.03;4936568;29;20214;-73
2024/01/07 02:42:50;;;;;;;3.57;2.00;;;;;;;17.76;58.50;99881.03;4911228;29;20211;-73
2024/01/07 02:45:15;;;;;;;3.93;2.00;;;;;;;17.77;57.88;99879.88;4901494;29;20207;-73
2024/01/07 02:47:41;;;;;;;4.10;2.47;;;;;;;17.76;58.09;99880.25;4918771;29;20262;-73
2024/01/07 02:50:06;;;;;;;4.33;1.90;;;;;;;17.76;58.03;99877.38;4932833;29;20268;-73
2024/01/07 02:52:32;;;;;;;3.43;2.10;;;;;;;17.80;57.73;99876.22;4917621;29;20208;-72
2024/01/07 02:54:58;;;;;;;4.30;1.60;;;;;;;17.80;57.81;99876.22;4949112;28;21029;-73
2024/01/07 02:57:24;;;;;;;5.93;2.20;;;;;;;17.78;57.83;99884.38;4912882;29;20208;-73
2024/01/07 02:59:49;;;;;;;3.60;1.90;;;;;;;17.75;57.95;99882.25;4916708;29;20506;-73
2024/01/07 03:02:15;;;;;;;4.13;1.93;;;;;;;17.72;58.48;99877.34;4899307;29;20218;-73
2024/01/07 03:04:40;;;;;;;3.53;1.77;;;;;;;17.75;58.36;99876.56;4912366;29;20212;-73
2024/01/07 03:07:06;;;;;;;5.03;2.30;;;;;;;17.76;58.12;99881.03;4929037;29;20591;-73
2024/01/07 03:09:31;;;;;;;4.00;2.07;;;;;;;17.74;58.14;99889.19;4920110;29;20211;-73
2024/01/07 03:11:56;;;;;;;3.60;2.00;;;;;;;17.75;58.18;99887.97;4928311;29;20204;-73
2024/01/07 03:14:23;;;;;;;3.80;2.00;;;;;;;17.74;57.70;99892.03;4917029;29;20212;-73
2024/01/07 03:16:48;;;;;;;3.60;1.80;;;;;;;17.73;57.98;99886.72;4933384;29;20267;-73
2024/01/07 03:19:14;;;;;;;2.57;1.60;;;;;;;17.76;58.06;99892.47;4946369;28;20982;-73
2024/01/07 03:21:39;;;;;;;3.70;1.60;;;;;;;17.73;58.19;99884.69;4918846;29;21017;-73
2024/01/07 03:24:05;;;;;;;3.87;1.80;;;;;;;17.72;58.09;99891.63;4924840;29;20218;-73
2024/01/07 03:26:32;;;;;;;4.10;1.87;;;;;;;17.74;57.63;99894.91;4899121;29;20295;-73
2024/01/07 03:28:59;;;;;;;5.33;1.80;;;;;;;17.72;58.00;99888.75;4943131;28;20207;-73
2024/01/07 03:31:25;;;;;;;3.93;2.17;;;;;;;17.72;57.97;99891.63;4912442;29;20463;-73
2024/01/07 03:33:50;;;;;;;4.10;1.90;;;;;;;17.71;58.09;99889.94;4910906;29;20464;-73
2024/01/07 03:36:16;;;;;;;3.40;2.10;;;;;;;17.73;58.22;99893.25;4925645;29;20211;-73
2024/01/07 03:38:41;;;;;;;4.47;2.27;;;;;;;17.73;58.46;99892.44;4920237;29;20211;-73
2024/01/07 03:41:07;;;;;;;3.30;1.70;;;;;;;17.73;57.83;99886.72;4920843;29;20219;-73
2024/01/07 03:43:32;;;;;;;2.93;1.70;;;;;;;17.76;58.09;99885.97;4917927;29;20364;-73
2024/01/07 03:45:58;;;;;;;4.23;1.80;;;;;;;17.70;58.09;99887.50;4917307;29;20220;-73
2024/01/07 03:48:23;;;;;;;3.57;2.00;;;;;;;17.72;58.12;99885.06;4900472;29;20211;-72
2024/01/07 03:50:49;;;;;;;3.27;1.80;;;;;;;17.74;57.64;99889.19;4929534;29;20270;-72
2024/01/07 03:53:14;;;;;;;3.13;1.77;;;;;;;17.75;57.67;99890.03;4933860;29;20200;-73
2024/01/07 03:55:40;;;;;;;3.87;1.93;;;;;;;17.71;57.83;99898.50;4915329;29;20243;-73
2024/01/07 03:58:05;;;;;;;3.30;2.37;;;;;;;17.72;58.39;99897.34;4915462;29;20203;-73
2024/01/07 04:00:31;;;;;;;3.07;1.80;;;;;;;17.78;57.74;99901.50;4902216;29;20689;-73
2024/01/07 04:02:57;;;;;;;3.10;1.70;;;;;;;17.74;57.75;99894.91;4882397;29;20255;-72
2024/01/07 04:05:22;;;;;;;2.53;1.43;;;;;;;17.73;57.51;99901.81;4896790;29;20207;-73
2024/01/07 04:07:47;;;;;;;3.30;1.67;;;;;;;17.75;57.46;99910.00;4916445;29;20255;-72
2024/01/07 04:10:13;;;;;;;2.80;1.70;;;;;;;17.72;58.34;99905.91;4916292;29;20271;-72
2024/01/07 04:12:39;;;;;;;3.23;1.77;;;;;;;17.78;57.49;99901.50;4916369;29;20237;-72
2024/01/07 04:15:05;;;;;;;2.93;1.93;;;;;;;17.79;57.28;99903.13;4932426;29;20228;-73
2024/01/07 04:17:30;;;;;;;3.47;1.70;;;;;;;17.78;57.85;99912.91;4899397;29;20303;-72
2024/01/07 04:19:55;;;;;;;3.30;1.93;;;;;;;17.74;57.83;99914.06;4887803;29;20463;-72
2024/01/07 04:22:21;;;;;;;3.90;1.80;;;;;;;17.75;58.14;99912.88;4896160;29;20666;-72
2024/01/07 04:24:46;;;;;;;3.83;1.83;;;;;;;17.79;57.53;99914.56;4902148;29;20258;-72
2024/01/07 04:27:12;;;;;;;2.80;1.70;;;;;;;17.77;57.71;99922.69;4927307;29;20214;-72
2024/01/07 04:29:37;;;;;;;3.10;1.73;;;;;;;17.75;57.81;99919.38;4934332;29;20203;-72
2024/01/07 04:32:03;;;;;;;2.53;1.70;;;;;;;17.73;57.60;99923.81;4916161;29;20200;-72
2024/01/07 04:34:29;;;;;;;3.37;1.80;;;;;;;17.78;57.64;99918.63;4916121;29;20566;-72
2024/01/07 04:36:54;;;;;;;2.43;1.60;;;;;;;17.77;57.52;99922.69;4915604;29;20966;-73
2024/01/07 04:39:20;;;;;;;4.70;1.53;;;;;;;17.72;57.89;99920.16;4899495;29;20297;-73
2024/01/07 04:41:45;;;;;;;4.17;1.80;;;;;;;17.78;57.83;99918.63;4915005;29;20200;-73
2024/01/07 04:44:10;;;;;;;3.13;1.70;;;;;;;17.73;58.03;99915.25;4913006;29;20681;-72
2024/01/07 04:46:38;;;;;;;4.00;2.17;;;;;;;17.79;57.51;99923.13;4914068;29;20655;-72
2024/01/07 04:49:03;;;;;;;3.47;2.07;;;;;;;17.76;57.45;99921.03;4935844;29;20239;-72
2024/01/07 04:51:29;;;;;;;4.23;1.90;;;;;;;17.75;57.60;99930.81;4915738;29;20459;-72
2024/01/07 04:53:54;;;;;;;2.67;1.40;;;;;;;17.74;57.84;99923.44;4928814;29;20212;-73
2024/01/07 04:56:20;;;;;;;5.27;1.93;;;;;;;17.76;57.68;99921.03;4941221;28;20238;-73
2024/01/07 04:58:45;;;;;;;4.37;1.70;;;;;;;17.76;57.63;99926.72;4922433;29;20235;-73
2024/01/07 05:01:11;;;;;;;3.80;2.03;;;;;;;17.75;58.06;99932.84;4899449;29;20672;-73
2024/01/07 05:03:37;;;;;;;2.90;1.50;;;;;;;17.71;57.95;99924.22;4901682;28;20972;-73
2024/01/07 05:06:03;;;;;;;3.83;1.97;;;;;;;17.74;57.87;99917.75;4920337;29;20702;-73
2024/01/07 05:08:29;;;;;;;3.80;1.77;;;;;;;17.78;57.66;99932.91;4952027;28;20451;-72
2024/01/07 05:10:55;;;;;;;2.60;1.47;;;;;;;17.77;57.55;99934.13;4909385;29;20471;-73
2024/01/07 05:13:20;;;;;;;2.83;1.87;;;;;;;17.74;58.22;99929.16;4898888;29;20199;-72
2024/01/07 05:15:46;;;;;;;3.47;1.50;;;;;;;17.79;57.16;99943.09;4931692;29;20211;-73
2024/01/07 05:18:12;;;;;;;3.57;1.80;;;;;;;17.79;57.55;99942.28;4914576;29;20200;-72
2024/01/07 05:20:37;;;;;;;3.07;1.63;;;;;;;17.76;57.68;99949.56;4903876;28;20961;-73
2024/01/07 05:23:03;;;;;;;2.93;1.63;;;;;;;17.82;57.06;99945.22;4919580;28;20214;-72
2024/01/07 05:25:29;;;;;;;3.33;1.50;;;;;;;17.78;57.44;99952.88;4956156;28;20947;-73
2024/01/07 05:27:54;;;;;;;3.63;1.90;;;;;;;17.81;57.18;99939.88;4918992;29;20446;-73
2024/01/07 05:30:20;;;;;;;4.03;2.07;;;;;;;17.77;57.45;99951.25;4946887;29;20559;-73
2024/01/07 05:32:45;;;;;;;2.97;1.50;;;;;;;17.80;57.40;99958.22;4925670;28;20194;-72
2024/01/07 05:35:11;;;;;;;3.43;1.87;;;;;;;17.78;57.99;99952.88;4937602;28;20206;-72
2024/01/07 05:37:36;;;;;;;3.53;2.00;;;;;;;17.77;57.53;99956.97;4953528;28;20202;-72
2024/01/07 05:40:01;;;;;;;2.70;1.70;;;;;;;17.78;57.87;99963.47;4928651;29;20221;-73
2024/01/07 05:42:27;;;;;;;2.93;1.53;;;;;;;17.80;57.19;99964.72;4901238;28;20224;-72
2024/01/07 05:44:52;;;;;;;3.50;2.17;;;;;;;17.76;57.79;99954.47;4920437;29;20651;-72
2024/01/07 05:47:18;;;;;;;3.10;1.60;;;;;;;17.82;57.54;99970.06;4917884;29;20653;-72
2024/01/07 05:49:43;;;;;;;6.10;1.50;;;;;;;17.78;57.90;99969.19;4896110;29;20274;-73
2024/01/07 05:52:09;;;;;;;3.90;2.57;;;;;;;17.77;57.86;99976.09;4913597;29;20566;-72
2024/01/07 05:54:34;;;;;;;3.40;1.80;;;;;;;17.80;57.82;99981.88;4927395;29;20216;-72
2024/01/07 05:57:00;;;;;;;2.60;1.43;;;;;;;17.77;57.84;99982.66;4898223;29;20196;-72
2024/01/07 05:59:25;;;;;;;3.70;1.73;;;;;;;17.81;58.12;99983.50;4865221;29;20207;-72
2024/01/07 06:01:50;;;;;;;2.60;1.73;;;;;;;17.80;57.47;99976.16;4892758;29;20244;-73
2024/01/07 06:04:16;;;;;;;3.03;1.50;;;;;;;17.77;57.77;99978.97;4913816;29;20255;-73
2024/01/07 06:06:41;;;;;;;3.13;1.80;;;;;;;17.80;57.08;99981.88;4928955;29;20263;-73
2024/01/07 06:09:07;;;;;;;3.37;1.80;;;;;;;17.77;57.53;99981.81;4913431;29;20223;-73
2024/01/07 06:11:32;;;;;;;2.90;1.40;;;;;;;17.78;57.71;99977.75;4898258;29;20227;-72
2024/01/07 06:13:58;;;;;;;2.77;1.40;;;;;;;17.78;57.65;99981.44;4910828;29;20956;-73
2024/01/07 06:16:23;;;;;;;2.43;1.37;;;;;;;17.77;57.93;99982.66;4902391;29;20648;-73
2024/01/07 06:18:49;;;;;;;2.60;1.33;;;;;;;17.83;57.36;99985.97;4913783;29;20208;-73
2024/01/07 06:21:14;;;;;;;2.73;1.37;;;;;;;17.85;57.37;99992.16;4913623;29;20214;-72
2024/01/07 06:23:39;;;;;;;4.20;1.80;;;;;;;17.78;57.38;99990.00;4914426;29;20226;-72
2024/01/07 06:26:05;;;;;;;2.33;1.40;;;;;;;17.81;57.78;99986.38;4903800;29;20208;-72
2024/01/07 06:28:34;;;;;;;2.73;1.50;;;;;;;17.82;57.72;99996.59;4911561;29;20203;-72
2024/01/07 06:30:59;;;;;;;2.87;1.80;;;;;;;17.82;57.19;99993.75;4914202;29;20275;-72
2024/01/07 06:33:24;;;;;;;2.67;1.47;;;;;;;17.83;57.61;99994.56;4914183;29;20568;-73
2024/01/07 06:35:50;;;;;;;3.00;1.90;;;;;;;17.87;57.22;100006.84;4912502;29;20207;-73
2024/01/07 06:38:15;;;;;;;3.17;1.47;;;;;;;17.82;57.50;100005.16;4895305;29;20212;-73
2024/01/07 06:40:41;;;;;;;2.50;1.50;;;;;;;17.83;57.24;100008.84;4895270;29;20236;-72
2024/01/07 06:43:06;;;;;;;4.17;1.60;;;;;;;17.84;57.04;100008.44;4911867;29;20232;-72
2024/01/07 06:45:32;;;;;;;2.40;1.60;;;;;;;17.80;57.68;100013.28;4907637;29;20219;-72
2024/01/07 06:47:58;;;;;;;5.00;1.67;;;;;;;17.82;57.19;100010.88;4863269;29;20235;-73
2024/01/07 06:50:23;;;;;;;2.83;1.83;;;;;;;17.80;57.45;100013.28;4893672;29;20905;-73
2024/01/07 06:52:49;;;;;;;4.73;2.00;;;;;;;17.81;57.20;100023.47;4914243;29;20458;-73
2024/01/07 06:55:15;;;;;;;3.27;1.70;;;;;;;17.83;57.77;100023.94;4941620;29;20219;-73
2024/01/07 06:57:40;;;;;;;3.23;1.80;;;;;;;17.82;57.48;100030.03;4913308;29;20210;-73
2024/01/07 07:00:06;;;;;;;3.63;1.70;;;;;;;17.85;57.08;100026.44;4946453;28;20226;-73
2024/01/07 07:02:31;;;;;;;2.97;1.70;;;;;;;17.84;57.09;100021.91;4936194;28;20308;-72
2024/01/07 07:04:57;;;;;;;2.30;1.50;;;;;;;17.83;57.19;100035.38;4950897;28;20206;-72
2024/01/07 07:07:22;;;;;;;2.60;1.80;;;;;;;17.86;57.55;100028.88;4965527;28;20250;-73
2024/01/07 07:09:48;;;;;;;3.90;1.80;;;;;;;17.85;57.35;100038.66;4932525;29;20671;-72
2024/01/07 07:12:13;;;;;;;2.63;1.60;;;;;;;17.84;57.34;100036.16;4952457;28;20209;-72
2024/01/07 07:14:39;;;;;;;3.80;1.80;;;;;;;17.82;57.56;100039.44;4931728;28;20211;-75
2024/01/07 07:17:04;;;;;;;2.53;1.37;;;;;;;17.82;57.25;100033.72;4917775;29;20223;-75
2024/01/07 07:19:29;;;;;;;1.93;1.23;;;;;;;17.87;57.04;100041.13;4935546;29;20318;-74
2024/01/07 07:21:55;;;;;;;2.77;1.50;;;;;;;17.83;57.21;100046.78;4909394;28;20218;-76
2024/01/07 07:24:22;;;;;;;2.67;1.30;;;;;;;17.82;57.46;100050.03;4941786;28;20270;-76
2024/01/07 07:26:47;;;;;;;5.60;2.03;;;;;;;17.82;57.47;100048.00;4938430;29;20206;-76
2024/01/07 07:29:13;;;;;;;3.27;1.90;;;;;;;17.83;57.10;100046.78;4920689;28;20931;-76
2024/01/07 07:31:38;;;;;;;2.60;1.73;;;;;;;17.89;57.03;100050.13;4917302;29;20195;-76
2024/01/07 07:34:04;;;;;;;4.50;1.77;;;;;;;17.85;56.94;100057.84;4925761;29;20262;-76
2024/01/07 07:36:29;;;;;;;3.00;1.77;;;;;;;17.84;57.33;100062.72;4936084;29;20210;-76
2024/01/07 07:38:55;;;;;;;2.47;1.53;;;;;;;17.84;57.23;100059.84;4951207;28;20207;-76
2024/01/07 07:41:20;;;;;;;2.73;1.47;;;;;;;17.83;58.10;100058.22;4916291;28;20233;-76
2024/01/07 07:43:46;;;;;;;2.50;1.50;;;;;;;17.87;56.85;100067.66;4936892;29;20560;-76
2024/01/07 07:46:11;;;;;;;2.83;1.60;;;;;;;17.89;57.13;100076.66;4930278;29;20691;-76
2024/01/07 07:48:37;;;;;;;3.77;2.47;;;;;;;17.88;57.29;100062.75;4916967;29;20711;-76
2024/01/07 07:51:03;;;;;;;2.33;1.50;;;;;;;17.84;57.09;100067.59;4933171;29;20680;-75
2024/01/07 07:53:28;;;;;;;2.40;1.37;;;;;;;17.90;57.21;100068.94;4934294;29;20206;-76
2024/01/07 07:55:54;;;;;;;3.57;1.70;;;;;;;17.86;57.36;100074.56;4924429;29;20215;-76
2024/01/07 07:58:19;;;;;;;3.37;2.17;;;;;;;17.88;57.24;100071.31;4920341;29;20218;-74
2024/01/07 08:00:45;;;;;;;3.03;1.57;;;;;;;17.88;57.00;100069.31;4918050;29;20305;-76
2024/01/07 08:03:10;;;;;;;2.47;1.53;;;;;;;17.89;57.16;100070.94;4934874;29;20210;-76
2024/01/07 08:05:36;;;;;;;2.80;1.50;;;;;;;17.86;57.35;100070.91;4950744;28;20206;-75
2024/01/07 08:08:01;;;;;;;3.73;1.80;;;;;;;17.82;57.26;100082.25;4938078;29;20231;-76
2024/01/07 08:10:28;;;;;;;3.13;1.60;;;;;;;17.83;57.45;100072.50;4920586;29;20199;-75
2024/01/07 08:12:54;;;;;;;2.20;1.40;;;;;;;17.84;57.12;100071.28;4950975;28;20207;-75
2024/01/07 08:15:19;;;;;;;3.60;1.87;;;;;;;17.88;57.29;100077.88;4935757;29;20517;-76
2024/01/07 08:17:45;;;;;;;2.60;1.27;;;;;;;17.85;57.45;100078.63;4934727;28;20279;-75
2024/01/07 08:20:11;;;;;;;3.20;1.60;;;;;;;17.92;57.32;100084.47;4930829;29;20207;-75
2024/01/07 08:22:36;;;;;;;2.40;1.20;;;;;;;17.90;56.98;100086.88;4938634;28;20206;-76
2024/01/07 08:25:02;;;;;;;2.07;1.37;;;;;;;17.87;57.17;100093.38;4929825;29;20447;-76
2024/01/07 08:27:27;;;;;;;3.27;1.80;;;;;;;17.90;56.96;100088.94;4908454;28;20195;-75
2024/01/07 08:29:53;;;;;;;2.50;1.60;;;;;;;17.89;57.32;100082.38;4914665;29;20202;-76
2024/01/07 08:32:19;;;;;;;2.70;1.53;;;;;;;17.87;57.75;100093.38;4914323;29;20315;-76
2024/01/07 08:34:44;;;;;;;2.40;1.50;;;;;;;17.88;57.53;100095.00;4901319;29;20211;-76
2024/01/07 08:37:10;;;;;;;2.10;1.10;;;;;;;17.96;56.79;100101.69;4915831;28;20466;-75
2024/01/07 08:39:36;;;;;;;2.30;1.40;;;;;;;17.91;56.94;100105.66;4935806;29;20203;-76
2024/01/07 08:42:03;;;;;;;4.77;1.60;;;;;;;17.93;56.92;100102.44;4937137;29;20218;-76
2024/01/07 08:44:28;;;;;;;3.17;1.57;;;;;;;17.95;57.22;100106.56;4935264;28;20210;-76
2024/01/07 08:46:54;;;;;;;2.33;1.37;;;;;;;17.97;56.47;100106.19;4934732;29;20451;-76
2024/01/07 08:49:19;;;;;;;2.77;1.60;;;;;;;17.99;56.82;100103.75;4934710;28;20230;-74
2024/01/07 08:51:45;;;;;;;2.73;1.60;;;;;;;17.93;56.71;100108.97;4931091;29;20238;-76
2024/01/07 08:54:10;;;;;;;2.63;1.37;;;;;;;17.92;57.13;100109.34;4951695;28;20266;-76
2024/01/07 08:56:36;;;;;;;1.90;1.27;;;;;;;17.95;56.55;100112.25;4912049;29;20218;-76
2024/01/07 08:59:02;;;;;;;2.80;1.60;;;;;;;17.91;56.91;100114.22;4934489;29;20206;-75
2024/01/07 09:01:27;;;;;;;2.57;1.33;;;;;;;17.91;57.18;100117.06;4932375;29;20222;-76
2024/01/07 09:03:52;;;;;;;3.13;1.57;;;;;;;17.96;56.84;100119.63;4918229;29;20207;-75
2024/01/07 09:06:18;;;;;;;2.80;1.50;;;;;;;17.91;57.12;100122.78;4930892;29;20203;-75
2024/01/07 09:08:43;;;;;;;2.77;1.60;;;;;;;17.93;56.86;100128.97;4934646;29;20203;-75
2024/01/07 09:11:11;;;;;;;3.03;1.70;;;;;;;17.96;56.80;100131.03;4915816;29;20606;-76
2024/01/07 09:13:37;;;;;;;2.77;1.30;;;;;;;17.93;56.79;100126.09;4935378;29;20191;-77
2024/01/07 09:16:02;;;;;;;4.30;1.60;;;;;;;17.89;57.43;100133.78;4945402;28;20442;-76
2024/01/07 09:18:28;;;;;;;2.90;1.60;;;;;;;17.95;56.73;100134.28;4936966;29;20770;-76
2024/01/07 09:20:53;;;;;;;2.10;1.40;;;;;;;17.97;57.22;100135.53;4931715;28;20294;-76
2024/01/07 09:23:18;;;;;;;2.43;1.30;;;;;;;17.90;57.15;100132.56;4950923;29;20217;-76
2024/01/07 09:25:46;;;;;;;2.00;1.10;;;;;;;17.90;57.22;100143.19;4942715;28;20211;-76
2024/01/07 09:28:12;;;;;;;2.60;1.47;;;;;;;17.93;57.03;100137.53;4934722;29;20209;-75
2024/01/07 09:30:38;;;;;;;2.73;1.47;;;;;;;17.98;56.82;100140.06;4931677;29;20767;-76
2024/01/07 09:33:03;;;;;;;2.10;1.30;;;;;;;17.97;56.65;100149.81;4939170;28;20447;-76
2024/01/07 09:35:29;;;;;;;2.50;1.50;;;;;;;17.94;56.96;100153.47;4931149;29;20218;-73
2024/01/07 09:37:54;;;;;;;2.67;1.77;;;;;;;17.98;57.17;100153.50;4936107;29;20210;-73
2024/01/07 09:40:20;;;;;;;2.80;1.50;;;;;;;17.99;56.85;100152.31;4917649;29;20254;-73
2024/01/07 09:42:46;;;;;;;2.97;1.70;;;;;;;17.99;56.92;100155.16;4934506;29;20215;-73
2024/01/07 09:45:13;;;;;;;2.63;1.63;;;;;;;17.96;57.04;100153.88;4918071;29;20203;-73
2024/01/07 09:47:40;;;;;;;3.60;1.50;;;;;;;17.98;57.27;100164.94;4900810;29;20211;-73
2024/01/07 09:50:06;;;;;;;2.50;1.30;;;;;;;17.96;56.91;100165.31;4934171;28;20490;-73
2024/01/07 09:52:32;;;;;;;2.70;1.50;;;;;;;17.98;56.90;100162.09;4933289;29;20508;-72
2024/01/07 09:55:03;;;;;;;3.00;1.73;;;;;;;18.00;57.06;100163.34;4916132;29;20475;-73
2024/01/07 09:57:29;;;;;;;2.37;1.20;;;;;;;18.03;56.93;100164.63;4907088;29;20472;-73
2024/01/07 09:59:54;;;;;;;2.37;1.30;;;;;;;17.97;57.06;100169.81;4929151;29;20443;-73
2024/01/07 10:02:21;;;;;;;4.10;2.00;;;;;;;17.97;56.73;100163.28;4929429;29;20227;-73
2024/01/07 10:04:48;;;;;;;2.37;1.30;;;;;;;18.02;56.46;100172.34;4929217;29;20239;-73
2024/01/07 10:07:13;;;;;;;2.70;1.50;;;;;;;17.98;56.84;100162.91;4948591;28;20507;-73
2024/01/07 10:09:40;;;;;;;2.80;1.40;;;;;;;17.96;56.81;100168.16;4933125;29;20455;-73
2024/01/07 10:12:06;;;;;;;3.00;1.70;;;;;;;17.99;56.90;100167.44;4933326;29;20659;-73
2024/01/07 10:14:32;;;;;;;3.00;1.67;;;;;;;17.99;57.51;100164.56;4945773;29;20462;-72
2024/01/07 10:16:58;;;;;;;7.00;2.43;;;;;;;17.95;56.51;100169.38;4918746;29;20806;-71
2024/01/07 10:19:23;;;;;;;8.03;3.00;;;;;;;17.86;56.07;100168.81;4901335;29;20204;-73
2024/01/07 10:22:03;;;;;;;7.27;3.80;;;;;;;17.76;55.37;100172.28;4945118;28;20478;-73
2024/01/07 10:24:37;;;;;;;10.23;4.67;;;;;;;17.79;55.61;100168.69;4883990;29;20222;-73
2024/01/07 10:27:03;;;;;;;10.70;3.67;;;;;;;17.83;55.50;100172.44;4930444;29;20481;-73
2024/01/07 10:29:29;;;;;;;9.17;3.93;;;;;;;17.84;55.53;100176.94;4948877;28;20479;-73
2024/01/07 10:31:58;;;;;;;9.67;3.03;;;;;;;17.86;56.02;100171.66;4933408;29;20553;-73
2024/01/07 10:34:23;;;;;;;9.63;2.93;;;;;;;17.90;55.63;100172.56;4949203;28;20855;-73
2024/01/07 10:36:50;;;;;;;7.03;2.70;;;;;;;17.92;55.68;100180.75;4934036;29;20454;-73
2024/01/07 10:39:16;;;;;;;9.93;3.73;;;;;;;17.90;55.73;100178.25;4929272;29;20261;-74
2024/01/07 10:41:42;;;;;;;7.27;3.00;;;;;;;17.93;55.58;100171.81;4945439;28;20459;-73
2024/01/07 10:44:07;;;;;;;5.73;2.80;;;;;;;17.92;55.40;100170.16;4945531;29;20211;-73
2024/01/07 10:46:33;;;;;;;6.13;3.20;;;;;;;17.99;55.33;100170.28;4946186;29;20200;-76
2024/01/07 10:49:04;;;;;;;7.60;3.17;;;;;;;17.97;55.41;100172.69;4915227;29;20254;-76
2024/01/07 10:51:30;;;;;;;7.70;2.93;;;;;;;17.99;55.72;100170.28;4929696;29;20214;-76
2024/01/07 10:53:56;;;;;;;7.50;2.77;;;;;;;18.01;55.22;100167.06;4900055;29;20458;-75
2024/01/07 10:56:25;;;;;;;7.23;2.60;;;;;;;18.04;55.30;100167.09;4947369;28;20490;-76
2024/01/07 10:58:54;;;;;;;7.63;2.40;;;;;;;18.02;56.11;100175.22;4933869;29;20659;-75
2024/01/07 11:01:20;;;;;;;5.03;2.70;;;;;;;18.02;55.35;100172.34;4911706;28;20449;-76
2024/01/07 11:04:14;;;;;;;12.07;2.87;;;;;;;18.03;55.52;100168.31;4952149;28;20470;-75
2024/01/07 11:07:17;;;;;;;6.87;2.50;;;;;;;18.03;55.80;100176.06;4924806;29;20459;-76
2024/01/07 11:10:12;;;;;;;10.00;3.13;;;;;;;18.01;55.92;100167.84;4930339;29;20439;-75
2024/01/07 11:12:37;;;;;;;6.67;2.27;;;;;;;18.03;55.53;100176.06;4929975;28;20529;-75
2024/01/07 11:15:03;;;;;;;7.20;2.17;;;;;;;18.09;55.11;100174.53;4941598;29;20493;-76
2024/01/07 11:17:32;;;;;;;8.30;2.43;;;;;;;17.98;56.20;100171.50;4945068;29;20282;-75
2024/01/07 11:20:01;;;;;;;5.93;2.20;;;;;;;18.01;56.07;100169.91;4964999;28;20628;-75
2024/01/07 11:22:27;;;;;;;8.50;2.20;;;;;;;18.04;56.05;100177.69;4932074;28;20479;-76